Latest Coastal Weather Observations for South Johnstone

IDQ60701

Issued at 7:31 am EST Thursday 27 April 2017 (issued every 10 minutes, with the page automatically refreshed every 10 minutes)

About coastal observations | Map of coastal stations | Coastal observations for QLD | Marine services | Other Formats
Station Details ID: 032037 Name: SOUTH JOHNSTONE EXP STN Lat: -17.61 Lon: 146.00 Height: 18.3 m
Data from the previous 72 hours. | See also: Recent months at South Johnstone
Date/Time
EST
Temp
°C
Wind Pressure Rain since
9am
mm
Weather Cloud Vis
km
Sea
Height
m
Swell
Dir  Spd
kts
Gust
kts
hPa Trend Height
m
Period
s
Dir
27/07:30am 18.8 CALM 0 4 1013.8 - 0.0 - - - - - - -
27/07:00am 17.8 CALM 0 0 1013.6 - 0.0 - - - - - - -
27/06:30am 17.9 SW 3 5 1012.9 - 0.0 - - - - - - -
27/06:00am 18.2 W 1 4 1012.3 - 0.0 - - - - - - -
27/05:30am 18.3 CALM 0 0 1012.5 - 0.0 - - - - - - -
27/05:00am 18.4 CALM 0 0 1012.3 - 0.0 - - - - - - -
27/04:30am 18.6 CALM 0 0 1012.2 - 0.0 - - - - - - -
27/04:00am 18.9 W 1 5 1012.2 - 0.0 - - - - - - -
27/03:30am 19.1 WNW 3 4 1012.1 - 0.0 - - - - - - -
27/03:00am 19.5 WNW 3 5 1012.0 - 0.0 - - - - - - -
27/02:30am 19.7 W 3 4 1012.2 - 0.0 - - - - - - -
27/02:00am 20.0 NW 1 3 1012.3 - 0.0 - - - - - - -
27/01:30am 19.9 CALM 0 4 1012.8 - 0.0 - - - - - - -
27/01:00am 19.9 CALM 0 0 1013.1 - 0.0 - - - - - - -
27/12:30am 20.1 CALM 0 0 1013.4 - 0.0 - - - - - - -
27/12:00am 20.4 CALM 0 0 1013.4 - 0.0 - - - - - - -
 
Date/Time
EST
Temp
°C
Wind Pressure Rain since
9am
mm
Weather Cloud Vis
km
Sea
Height
m
Swell
Dir  Spd
kts
Gust
kts
hPa Trend Height
m
Period
s
Dir
26/11:30pm 20.7 CALM 0 0 1013.6 - 0.0 - - - - - - -
26/11:00pm 21.0 CALM 0 0 1013.9 - 0.0 - - - - - - -
26/10:30pm 21.2 CALM 0 0 1014.1 - 0.0 - - - - - - -
26/10:00pm 21.4 CALM 0 0 1014.1 - 0.0 - - - - - - -
26/09:30pm 21.5 CALM 0 0 1014.2 - 0.0 - - - - - - -
26/09:00pm 21.8 W 3 4 1014.1 - 0.0 - - - - - - -
26/08:30pm 22.2 WSW 3 5 1014.3 - 0.0 - - - - - - -
26/08:00pm 22.2 WSW 3 5 1013.9 - 0.0 - - - - - - -
26/07:30pm 22.5 CALM 0 0 1013.5 - 0.0 - - - - - - -
26/07:00pm 23.0 CALM 0 0 1013.1 - 0.0 - - - - - - -
26/06:30pm 23.4 CALM 0 0 1012.8 - 0.0 - - - - - - -
26/06:00pm 24.0 SSE 2 4 1012.5 - 0.0 - - - - - - -
26/05:30pm 24.8 CALM 0 1 1012.4 - 0.0 - - - - - - -
26/05:00pm 25.3 ENE 4 5 1012.2 - 0.0 - - - - - - -
26/04:30pm 25.9 E 4 5 1012.0 - 0.0 - - - - - - -
26/04:00pm 26.3 ENE 4 7 1012.2 - 0.0 - - - - - - -
26/03:30pm 26.7 ESE 5 8 1012.0 - 0.0 - - - - - - -
26/03:00pm 27.3 E 4 7 1011.7 - 0.0 - - - - - - -
26/02:30pm 27.1 E 4 6 1012.2 - 0.0 - - - - - - -
26/02:00pm 27.1 NE 6 8 1012.6 - 0.0 - - - - - - -
26/01:30pm 27.7 NNE 3 8 1013.0 - 0.0 - - - - - - -
26/01:00pm 27.8 NE 3 6 1013.2 - 0.0 - - - - - - -
26/12:30pm 27.3 ENE 5 7 1013.8 - 0.0 - - - - - - -
26/12:00pm 27.0 SSE 2 5 1014.2 - 0.0 - - - - - - -
26/11:30am 27.0 S 1 8 1014.8 - 0.0 - - - - - - -
26/11:00am 27.0 E 4 7 1015.4 - 0.0 - - - - - - -
26/10:30am 26.6 SE 4 7 1015.5 - 0.0 - - - - - - -
26/10:00am 26.4 CALM 0 0 1015.6 - 0.0 - - - - - - -
26/09:30am 24.9 CALM 0 0 1015.7 - 0.0 - - - - - - -
26/09:00am 23.7 WSW 1 5 1015.7 - 0.0 - - - - - - -
26/08:30am 22.3 CALM 0 3 1015.7 - 0.0 - - - - - - -
26/08:00am 21.1 WNW 1 4 1015.4 - 0.0 - - - - - - -
26/07:30am 19.9 W 1 3 1015.3 - 0.0 - - - - - - -
26/07:00am 19.4 CALM 0 2 1015.0 - 0.0 - - - - - - -
26/06:30am 19.2 WSW 2 5 1014.5 - 0.0 - - - - - - -
26/06:00am 19.1 CALM 0 0 1014.0 - 0.0 - - - - - - -
26/05:30am 19.5 W 1 4 1014.0 - 0.0 - - - - - - -
26/05:00am 19.5 WSW 3 5 1014.0 - 0.0 - - - - - - -
26/04:30am 19.6 WSW 2 5 1014.1 - 0.0 - - - - - - -
26/04:00am 19.6 CALM 0 1 1014.1 - 0.0 - - - - - - -
26/03:30am 19.6 W 2 4 1014.3 - 0.0 - - - - - - -
26/03:00am 19.5 WSW 2 6 1014.0 - 0.0 - - - - - - -
26/02:30am 19.6 W 3 6 1014.2 - 0.0 - - - - - - -
26/02:00am 19.8 W 1 4 1014.5 - 0.0 - - - - - - -
26/01:30am 20.0 WNW 1 4 1014.8 - 0.0 - - - - - - -
26/01:00am 20.1 WNW 4 5 1015.2 - 0.0 - - - - - - -
26/12:30am 20.3 W 3 5 1015.5 - 0.0 - - - - - - -
26/12:00am 20.3 W 1 3 1015.5 - 0.0 - - - - - - -
 
Date/Time
EST
Temp
°C
Wind Pressure Rain since
9am
mm
Weather Cloud Vis
km
Sea
Height
m
Swell
Dir  Spd
kts
Gust
kts
hPa Trend Height
m
Period
s
Dir
25/11:30pm 20.5 W 4 6 1015.8 - 0.0 - - - - - - -
25/11:00pm 20.6 WSW 5 7 1016.1 - 0.0 - - - - - - -
25/10:30pm 20.8 W 2 4 1016.2 - 0.0 - - - - - - -
25/10:00pm 20.9 W 4 6 1016.1 - 0.0 - - - - - - -
25/09:30pm 21.1 W 3 6 1016.2 - 0.0 - - - - - - -
25/09:00pm 21.3 W 4 6 1016.2 - 0.0 - - - - - - -
25/08:30pm 21.5 W 4 6 1016.1 - 0.0 - - - - - - -
25/08:00pm 21.9 WSW 3 5 1016.0 - 0.0 - - - - - - -
25/07:30pm 22.2 CALM 0 4 1015.6 - 0.0 - - - - - - -
25/07:00pm 22.9 CALM 0 0 1015.3 - 0.0 - - - - - - -
25/06:30pm 23.7 CALM 0 0 1014.9 - 0.0 - - - - - - -
25/06:00pm 24.5 CALM 0 0 1014.5 - 0.0 - - - - - - -
25/05:30pm 25.1 ESE 2 5 1014.2 - 0.0 - - - - - - -
25/05:00pm 25.6 SSE 6 10 1014.0 - 0.0 - - - - - - -
25/04:30pm 26.1 SE 7 11 1013.8 - 0.0 - - - - - - -
25/04:00pm 26.6 SSE 8 12 1013.6 - 0.0 - - - - - - -
25/03:30pm 26.4 ESE 7 11 1013.6 - 0.0 - - - - - - -
25/03:00pm 27.5 ESE 7 12 1013.6 - 0.0 - - - - - - -
25/02:30pm 27.7 SE 7 12 1013.7 - 0.0 - - - - - - -
25/02:00pm 27.5 ESE 7 12 1014.0 - 0.0 - - - - - - -
25/01:30pm 27.1 SE 7 10 1014.3 - 0.0 - - - - - - -
25/01:00pm 27.2 SE 7 12 1014.6 - 0.0 - - - - - - -
25/12:30pm 27.7 SE 7 12 1014.9 - 0.0 - - - - - - -
25/12:00pm 27.0 ESE 6 11 1015.3 - 0.0 - - - - - - -
25/11:30am 27.1 SE 8 13 1015.8 - 0.0 - - - - - - -
25/11:00am 26.1 ESE 8 12 1016.3 - 0.0 - - - - - - -
25/10:30am 25.8 SSE 6 10 1016.6 - 0.0 - - - - - - -
25/10:00am 25.6 NE 2 5 1016.8 - 0.0 - - - - - - -
25/09:30am 25.8 CALM 0 0 1016.8 - 0.0 - - - - - - -
25/09:00am 24.0 W 1 4 1016.7 - 1.2 - - - - - - -
25/08:30am 22.6 CALM 0 0 1016.6 - 1.2 - - - - - - -
25/08:00am 21.8 CALM 0 2 1016.4 - 1.2 - - - - - - -
25/07:30am 21.4 CALM 0 3 1016.1 - 1.2 - - - - - - -
25/07:00am 21.0 W 2 5 1015.8 - 1.0 - - - - - - -
25/06:30am 20.8 CALM 0 3 1015.5 - 1.0 - - - - - - -
25/06:00am 20.8 CALM 0 0 1015.0 - 1.0 - - - - - - -
25/05:30am 21.0 CALM 0 0 1014.7 - 1.0 - - - - - - -
25/05:00am 21.1 CALM 0 1 1014.4 - 1.0 - - - - - - -
25/04:30am 21.1 CALM 0 0 1014.5 - 1.0 - - - - - - -
25/04:00am 21.0 WNW 1 4 1014.2 - 1.0 - - - - - - -
25/03:30am 21.0 WSW 2 4 1014.1 - 1.0 - - - - - - -
25/03:00am 20.7 WSW 4 7 1014.0 - 0.8 - - - - - - -
25/02:30am 20.9 WNW 2 4 1014.3 - 0.6 - - - - - - -
25/02:00am 21.0 W 2 4 1014.7 - 0.6 - - - - - - -
25/01:30am 21.2 CALM 0 0 1015.1 - 0.6 - - - - - - -
25/01:00am 21.3 CALM 0 3 1015.4 - 0.6 - - - - - - -
25/12:30am 21.3 W 2 5 1015.7 - 0.6 - - - - - - -
25/12:00am 21.3 W 4 6 1015.9 - 0.6 - - - - - - -
 
Date/Time
EST
Temp
°C
Wind Pressure Rain since
9am
mm
Weather Cloud Vis
km
Sea
Height
m
Swell
Dir  Spd
kts
Gust
kts
hPa Trend Height
m
Period
s
Dir
24/11:30pm 21.4 W 3 4 1016.4 - 0.6 - - - - - - -
24/11:00pm 21.4 W 4 6 1016.6 - 0.6 - - - - - - -
24/10:30pm 21.7 CALM 0 4 1016.7 - 0.6 - - - - - - -
24/10:00pm 21.9 WNW 1 3 1016.8 - 0.6 - - - - - - -
24/09:30pm 21.9 W 1 5 1016.9 - 0.6 - - - - - - -
24/09:00pm 22.2 CALM 0 3 1016.8 - 0.6 - - - - - - -
24/08:30pm 22.1 W 2 5 1016.7 - 0.6 - - - - - - -
24/08:00pm 22.3 CALM 0 0 1016.4 - 0.6 - - - - - - -
24/07:30pm 22.7 CALM 0 0 1016.3 - 0.6 - - - - - - -
24/07:00pm 23.4 SW 2 5 1016.0 - 0.6 - - - - - - -
24/06:30pm 23.9 SW 2 6 1015.8 - 0.6 - - - - - - -
24/06:00pm 24.6 S 3 5 1015.6 - 0.6 - - - - - - -
24/05:30pm 25.0 S 5 8 1015.3 - 0.6 - - - - - - -
24/05:00pm 25.0 S 6 8 1015.1 - 0.6 - - - - - - -
24/04:30pm 25.3 S 6 9 1014.8 - 0.6 - - - - - - -
24/04:00pm 26.0 SSE 7 9 1014.7 - 0.4 - - - - - - -
24/03:30pm 26.7 SSE 9 13 1014.6 - 0.4 - - - - - - -
24/03:00pm 26.9 SE 7 13 1014.4 - 0.4 - - - - - - -
24/02:30pm 27.8 SE 8 11 1014.6 - 0.4 - - - - - - -
24/02:00pm 27.6 ESE 8 14 1014.9 - 0.4 - - - - - - -
24/01:30pm 27.7 ESE 8 14 1015.2 - 0.4 - - - - - - -
24/01:00pm 26.8 SE 7 12 1015.6 - 0.4 - - - - - - -
24/12:30pm 25.1 E 7 10 1015.9 - 0.4 - - - - - - -
24/12:00pm 24.6 E 9 18 1016.2 - 0.2 - - - - - - -
24/11:30am 27.1 SE 7 15 1016.4 - 0.0 - - - - - - -
24/11:00am 25.9 SSE 10 15 1016.9 - 0.0 - - - - - - -
24/10:30am 26.6 ESE 8 14 1017.1 - 0.0 - - - - - - -
24/10:00am 26.0 SSE 5 9 1017.3 - 0.0 - - - - - - -
24/09:30am 24.6 SW 3 5 1017.2 - 0.0 - - - - - - -
24/09:00am 23.5 S 4 8 1017.0 - 9.2 - - - - - - -
24/08:30am 22.8 S 8 11 1017.0 - 9.2 - - - - - - -
24/08:00am 23.2 S 6 9 1016.7 - 8.8 - - - - - - -

Other Formats:

Comma delimited format used in spreadsheet applications
http://www.bom.gov.au/fwo/IDQ60701/IDQ60701.95292.axf

JavaScript Object Notation format (JSON) in row-major order
http://www.bom.gov.au/fwo/IDQ60701/IDQ60701.95292.json